Time;durP1;ratioP1;P1;durP2;ratioP2;P2;SDS_P1;SDS_P2;PMS_P1;PMS_P2;Temp;Humidity;BMP_temperature;BMP_pressure;BME280_temperature;BME280_humidity;BME280_pressure;Samples;Min_cycle;Max_cycle;Signal;HPM_P1;HPM_P2
2021/01/19 00:00:34;;;;;;;7.45;3.00;;;4.00;99.90;;;;;;5014587;28;20026;-67
2021/01/19 00:03:00;;;;;;;9.63;3.45;;;4.00;99.70;;;;;;5014246;28;20084;-67
2021/01/19 00:05:25;;;;;;;7.57;3.60;;;3.90;99.90;;;;;;5014504;28;20030;-68
2021/01/19 00:07:51;;;;;;;8.30;3.97;;;3.80;99.90;;;;;;5013129;28;20064;-67
2021/01/19 00:10:16;;;;;;;7.55;3.05;;;3.60;99.90;;;;;;5014352;28;20110;-67
2021/01/19 00:12:42;;;;;;;6.30;2.83;;;3.80;99.90;;;;;;5014128;28;20137;-67
2021/01/19 00:15:08;;;;;;;6.60;2.90;;;3.90;99.80;;;;;;5014295;28;20060;-67
2021/01/19 00:17:34;;;;;;;5.85;2.90;;;3.90;99.90;;;;;;5014357;28;20026;-67
2021/01/19 00:20:00;;;;;;;7.47;3.47;;;4.00;99.40;;;;;;5014323;28;20084;-67
2021/01/19 00:22:25;;;;;;;6.78;2.80;;;4.00;99.90;;;;;;5013843;28;20037;-67
2021/01/19 00:24:51;;;;;;;7.38;3.20;;;4.00;99.60;;;;;;5014115;28;20030;-68
2021/01/19 00:27:16;;;;;;;8.27;3.50;;;3.90;99.90;;;;;;5014115;28;20030;-67
2021/01/19 00:29:42;;;;;;;6.43;3.30;;;3.80;99.90;;;;;;5011112;28;20067;-67
2021/01/19 00:32:07;;;;;;;15.98;5.72;;;3.60;99.90;;;;;;5012541;28;20033;-67
2021/01/19 00:34:33;;;;;;;10.00;4.38;;;3.70;99.90;;;;;;5013161;28;20030;-67
2021/01/19 00:36:58;;;;;;;8.60;3.50;;;3.70;99.90;;;;;;5013222;28;20030;-67
2021/01/19 00:39:24;;;;;;;8.35;3.33;;;3.60;99.90;;;;;;5012575;28;20017;-67
2021/01/19 00:41:49;;;;;;;6.75;3.22;;;3.40;99.90;;;;;;5013598;28;20501;-67
2021/01/19 00:44:15;;;;;;;8.70;3.60;;;3.60;99.90;;;;;;5013759;28;20385;-67
2021/01/19 00:46:40;;;;;;;8.18;3.40;;;3.40;99.90;;;;;;5013919;28;20041;-67
2021/01/19 00:49:06;;;;;;;12.52;5.70;;;3.40;99.90;;;;;;5012444;28;20022;-67
2021/01/19 00:51:35;;;;;;;7.50;3.85;;;3.40;99.90;;;;;;5013706;28;20032;-67
2021/01/19 00:54:02;;;;;;;8.52;3.38;;;3.60;99.90;;;;;;5013335;28;20032;-67
2021/01/19 00:56:41;;;;;;;11.05;4.15;;;3.70;99.90;;;;;;5013674;28;20481;-67
2021/01/19 00:59:07;;;;;;;6.15;3.10;;;3.70;99.90;;;;;;5013519;28;20550;-67
2021/01/19 01:01:33;;;;;;;5.93;3.10;;;3.90;99.90;;;;;;5013582;28;20053;-67
2021/01/19 01:03:59;;;;;;;8.80;3.67;;;3.90;99.80;;;;;;5013158;28;20030;-67
2021/01/19 01:06:25;;;;;;;10.77;3.65;;;4.10;99.30;;;;;;5013250;28;20033;-67
2021/01/19 01:08:50;;;;;;;7.82;3.65;;;4.10;99.20;;;;;;5012071;28;20026;-67
2021/01/19 01:11:16;;;;;;;7.53;3.15;;;4.00;99.70;;;;;;5013376;28;20088;-67
2021/01/19 01:13:42;;;;;;;7.97;3.67;;;4.00;99.30;;;;;;5013023;28;20026;-67
2021/01/19 01:16:10;;;;;;;8.00;3.25;;;4.20;99.00;;;;;;5013427;28;20108;-67
2021/01/19 01:18:36;;;;;;;10.88;3.85;;;4.20;98.60;;;;;;5013312;28;20026;-67
2021/01/19 01:21:01;;;;;;;13.27;5.25;;;4.20;98.80;;;;;;5013072;28;20120;-68
2021/01/19 01:23:27;;;;;;;10.85;5.07;;;4.00;99.50;;;;;;5012770;28;20109;-67
2021/01/19 01:25:52;;;;;;;9.82;3.63;;;3.90;99.70;;;;;;5013087;28;20447;-67
2021/01/19 01:28:18;;;;;;;9.15;3.50;;;3.90;99.80;;;;;;5012899;28;20553;-67
2021/01/19 01:30:43;;;;;;;9.13;3.63;;;3.90;99.80;;;;;;5011717;28;20480;-68
2021/01/19 01:33:09;;;;;;;8.85;3.28;;;4.00;99.60;;;;;;5012683;28;20503;-67
2021/01/19 01:35:34;;;;;;;12.20;4.70;;;4.00;99.60;;;;;;5011610;28;20030;-67
2021/01/19 01:38:00;;;;;;;9.40;3.83;;;4.00;99.80;;;;;;5013027;28;20139;-67
2021/01/19 01:40:27;;;;;;;6.65;3.50;;;4.10;99.30;;;;;;5013030;28;20030;-67
2021/01/19 01:42:57;;;;;;;6.32;3.22;;;4.10;99.40;;;;;;5012571;28;20073;-67
2021/01/19 01:45:24;;;;;;;8.95;3.88;;;4.00;99.50;;;;;;5012980;28;20061;-67
2021/01/19 01:47:52;;;;;;;9.70;4.13;;;4.00;99.70;;;;;;5012996;28;20032;-67
2021/01/19 01:50:18;;;;;;;7.88;3.75;;;4.00;99.80;;;;;;5012883;28;20026;-67
2021/01/19 01:52:45;;;;;;;7.28;3.83;;;3.80;99.90;;;;;;5012416;28;20450;-67
2021/01/19 01:55:12;;;;;;;7.32;3.58;;;3.90;99.90;;;;;;5012939;28;20030;-67
2021/01/19 01:57:38;;;;;;;7.63;3.08;;;4.00;99.90;;;;;;5012601;28;20026;-67
2021/01/19 02:00:06;;;;;;;7.97;3.72;;;4.00;99.60;;;;;;5012205;28;20471;-67
2021/01/19 02:02:32;;;;;;;5.82;2.97;;;4.00;99.70;;;;;;5012185;28;20026;-67
2021/01/19 02:04:58;;;;;;;8.40;3.30;;;4.00;99.80;;;;;;5012435;28;20028;-67
2021/01/19 02:07:56;;;;;;;6.18;2.90;;;3.90;99.90;;;;;;5012281;28;20117;-67
2021/01/19 02:10:42;;;;;;;7.45;3.22;;;3.90;99.80;;;;;;5012501;28;20022;-67
2021/01/19 02:13:20;;;;;;;7.53;3.10;;;3.90;99.90;;;;;;5011840;28;20025;-67
2021/01/19 02:15:54;;;;;;;8.82;3.20;;;3.80;99.90;;;;;;5012405;28;20026;-67
2021/01/19 02:18:28;;;;;;;7.72;3.08;;;3.80;99.90;;;;;;5012187;28;20500;-67
2021/01/19 02:21:24;;;;;;;7.20;3.58;;;3.80;99.90;;;;;;5012168;28;20030;-67
2021/01/19 02:23:59;;;;;;;6.53;3.33;;;3.60;99.90;;;;;;5011471;28;20038;-68
2021/01/19 02:26:43;;;;;;;8.63;3.40;;;3.40;99.90;;;;;;5011860;28;20126;-67
2021/01/19 02:29:23;;;;;;;8.95;3.30;;;3.40;99.90;;;;;;5011951;28;20025;-68
2021/01/19 02:31:58;;;;;;;6.57;2.97;;;3.50;99.90;;;;;;5011544;28;20481;-67
2021/01/19 02:34:45;;;;;;;6.72;2.90;;;3.50;99.90;;;;;;5010577;28;20042;-67
2021/01/19 02:37:23;;;;;;;5.95;2.97;;;3.40;99.90;;;;;;5011867;28;20034;-68
2021/01/19 02:40:02;;;;;;;6.38;3.20;;;3.40;99.90;;;;;;5011784;28;20443;-67
2021/01/19 02:42:34;;;;;;;8.75;3.50;;;3.40;99.90;;;;;;5011233;28;20029;-67
2021/01/19 02:45:05;;;;;;;8.63;3.35;;;3.60;99.90;;;;;;5011868;28;20026;-67
2021/01/19 02:47:31;;;;;;;6.35;3.25;;;3.60;99.90;;;;;;5010186;28;20075;-67
2021/01/19 02:49:56;;;;;;;7.47;3.75;;;3.40;99.90;;;;;;5010282;28;20021;-67
2021/01/19 02:52:22;;;;;;;6.28;2.67;;;3.40;99.90;;;;;;5011058;28;20156;-68
2021/01/19 02:54:48;;;;;;;6.53;3.25;;;3.70;99.90;;;;;;5011395;28;20369;-68
2021/01/19 02:58:00;;;;;;;5.15;2.72;;;3.70;99.90;;;;;;5010389;28;20481;-67
2021/01/19 03:01:02;;;;;;;6.55;2.80;;;4.00;99.60;;;;;;4931429;29;20075;-67
2021/01/19 03:03:33;;;;;;;7.32;3.38;;;4.10;99.60;;;;;;4913347;29;20035;-67
2021/01/19 03:06:07;;;;;;;8.20;3.13;;;4.10;99.70;;;;;;4931403;29;20491;-67
2021/01/19 03:08:34;;;;;;;8.43;3.33;;;4.00;99.90;;;;;;4931389;29;20043;-67
2021/01/19 03:11:02;;;;;;;6.50;3.22;;;3.90;99.90;;;;;;4930955;29;20783;-67
2021/01/19 03:13:28;;;;;;;4.90;2.53;;;3.90;99.90;;;;;;4930618;29;20032;-67
2021/01/19 03:16:06;;;;;;;6.97;3.10;;;4.00;99.50;;;;;;4915253;29;20661;-67
2021/01/19 03:18:33;;;;;;;5.78;3.17;;;4.00;99.60;;;;;;4931165;29;20039;-67
2021/01/19 03:21:00;;;;;;;6.55;3.03;;;4.00;99.70;;;;;;4931122;29;20438;-67
2021/01/19 03:23:26;;;;;;;6.35;3.35;;;4.00;99.60;;;;;;4930815;29;20083;-67
2021/01/19 03:25:51;;;;;;;5.57;2.83;;;4.00;99.60;;;;;;4915278;29;20032;-67
2021/01/19 03:28:17;;;;;;;6.28;3.35;;;4.00;99.20;;;;;;4930983;29;20364;-67
2021/01/19 03:30:42;;;;;;;6.18;2.70;;;4.00;99.30;;;;;;4958153;28;20050;-67
2021/01/19 03:33:08;;;;;;;5.95;3.30;;;4.00;99.20;;;;;;5010756;28;20030;-67
2021/01/19 03:35:39;;;;;;;7.28;3.28;;;4.00;99.50;;;;;;5011100;28;20029;-68
2021/01/19 03:38:05;;;;;;;6.40;3.40;;;4.00;99.60;;;;;;5010945;28;20104;-67
2021/01/19 03:40:31;;;;;;;7.25;3.40;;;3.90;99.80;;;;;;5010898;28;20038;-68
2021/01/19 03:42:56;;;;;;;7.60;3.30;;;3.90;99.90;;;;;;5010566;28;20032;-68
2021/01/19 03:45:22;;;;;;;6.30;2.95;;;3.70;99.90;;;;;;5010909;28;20101;-68
2021/01/19 03:47:47;;;;;;;5.88;3.05;;;3.90;99.90;;;;;;5009488;28;20037;-67
2021/01/19 03:50:13;;;;;;;6.53;2.72;;;4.00;99.90;;;;;;5010867;28;20084;-67
2021/01/19 03:52:38;;;;;;;5.75;2.95;;;3.90;99.90;;;;;;5009069;28;20026;-67
2021/01/19 03:55:04;;;;;;;5.63;3.00;;;4.00;99.70;;;;;;5010741;28;20097;-67
2021/01/19 03:57:30;;;;;;;7.03;3.20;;;4.00;99.80;;;;;;5010831;28;20026;-67
2021/01/19 03:59:55;;;;;;;6.47;3.45;;;4.00;99.80;;;;;;5010818;28;20030;-67
2021/01/19 04:02:21;;;;;;;5.82;3.25;;;3.90;99.90;;;;;;5010731;28;20460;-67
2021/01/19 04:04:48;;;;;;;9.65;4.25;;;3.90;99.90;;;;;;5010714;28;20088;-68
2021/01/19 04:07:14;;;;;;;10.70;4.32;;;3.80;99.90;;;;;;5010579;28;20495;-67
2021/01/19 04:09:39;;;;;;;7.80;3.90;;;4.00;99.60;;;;;;5010658;28;20034;-67
2021/01/19 04:12:05;;;;;;;12.27;4.75;;;4.00;99.70;;;;;;5010330;28;20037;-67
2021/01/19 04:14:30;;;;;;;9.63;4.55;;;3.90;99.90;;;;;;5009308;28;20072;-67
2021/01/19 04:16:56;;;;;;;8.80;4.60;;;3.80;99.90;;;;;;5010597;28;20034;-67
2021/01/19 04:19:21;;;;;;;12.65;5.25;;;3.80;99.90;;;;;;5009347;28;20174;-67
2021/01/19 04:21:47;;;;;;;8.45;4.80;;;3.80;99.90;;;;;;5008900;28;20033;-68
2021/01/19 04:24:12;;;;;;;10.00;4.50;;;3.90;99.90;;;;;;5013211;28;20061;-67
2021/01/19 04:26:38;;;;;;;10.68;5.03;;;3.90;99.60;;;;;;5012787;28;20113;-68
2021/01/19 04:29:03;;;;;;;8.98;4.10;;;3.80;99.90;;;;;;5014410;28;20018;-67
2021/01/19 04:31:29;;;;;;;12.27;4.60;;;3.80;99.90;;;;;;5014079;28;20481;-68
2021/01/19 04:33:54;;;;;;;10.18;4.57;;;3.80;99.80;;;;;;5013689;28;20156;-67
2021/01/19 04:36:20;;;;;;;9.65;4.03;;;3.70;99.90;;;;;;5014031;28;20101;-67
2021/01/19 04:38:45;;;;;;;15.18;4.97;;;3.80;99.90;;;;;;5013892;28;20550;-67
2021/01/19 04:41:11;;;;;;;13.20;4.40;;;3.80;99.80;;;;;;5013881;28;20100;-68
2021/01/19 04:43:37;;;;;;;11.20;4.63;;;3.80;99.60;;;;;;5013544;28;20030;-67
2021/01/19 04:46:07;;;;;;;11.43;4.85;;;3.80;99.80;;;;;;5013774;28;20032;-68
2021/01/19 04:48:33;;;;;;;10.60;4.80;;;3.80;99.60;;;;;;5013823;28;20037;-67
2021/01/19 04:51:00;;;;;;;10.32;4.38;;;3.80;99.50;;;;;;5013741;28;20459;-67
2021/01/19 04:53:31;;;;;;;11.90;4.30;;;3.80;99.60;;;;;;5013252;28;20026;-67
2021/01/19 04:56:02;;;;;;;9.98;4.40;;;3.90;99.20;;;;;;5012484;28;20026;-67
2021/01/19 04:58:29;;;;;;;10.73;5.68;;;3.80;99.30;;;;;;5012408;28;20026;-67
2021/01/19 05:01:09;;;;;;;10.98;5.00;;;3.80;99.20;;;;;;5013648;28;20041;-67
2021/01/19 05:03:43;;;;;;;9.30;4.43;;;3.70;99.80;;;;;;5013178;28;20065;-67
2021/01/19 05:06:33;;;;;;;7.45;3.85;;;3.90;99.00;;;;;;5013413;28;20494;-67
2021/01/19 05:09:07;;;;;;;6.88;3.85;;;3.90;99.10;;;;;;5013364;28;20481;-67
2021/01/19 05:11:48;;;;;;;7.80;3.97;;;3.70;99.30;;;;;;5013439;28;20485;-67
2021/01/19 05:14:21;;;;;;;8.73;4.00;;;3.80;99.00;;;;;;5012043;28;20465;-68
2021/01/19 05:16:48;;;;;;;8.40;3.88;;;3.70;99.10;;;;;;5013324;28;20037;-67
2021/01/19 05:19:15;;;;;;;7.75;3.58;;;3.80;98.70;;;;;;5013266;28;20022;-67
2021/01/19 05:21:45;;;;;;;8.52;3.95;;;3.90;98.80;;;;;;5011643;28;20018;-67
2021/01/19 05:24:10;;;;;;;9.00;3.80;;;3.80;98.80;;;;;;5013177;28;20448;-67
2021/01/19 05:26:39;;;;;;;8.30;3.80;;;3.70;99.00;;;;;;5011662;28;20257;-67
2021/01/19 05:29:05;;;;;;;8.40;3.53;;;3.80;98.80;;;;;;5013221;28;20030;-67
2021/01/19 05:31:31;;;;;;;8.32;3.63;;;3.80;98.50;;;;;;5012962;28;20022;-67
2021/01/19 05:34:04;;;;;;;11.38;4.15;;;3.80;98.40;;;;;;5012318;28;20026;-67
2021/01/19 05:36:40;;;;;;;8.55;3.00;;;3.60;98.70;;;;;;5012559;28;20022;-67
2021/01/19 05:39:11;;;;;;;8.13;2.95;;;3.70;98.10;;;;;;5013380;28;20045;-67
2021/01/19 05:41:54;;;;;;;9.05;3.63;;;3.70;98.00;;;;;;5012787;28;20033;-67
2021/01/19 05:44:26;;;;;;;10.80;3.25;;;3.70;98.10;;;;;;5012832;28;20022;-67
2021/01/19 05:46:58;;;;;;;8.88;3.40;;;3.70;98.30;;;;;;5012768;28;20112;-67
2021/01/19 05:49:26;;;;;;;12.18;3.88;;;3.60;98.20;;;;;;5011338;28;20021;-67
2021/01/19 05:52:04;;;;;;;10.15;3.00;;;3.70;97.50;;;;;;5012136;28;20029;-67
2021/01/19 05:54:32;;;;;;;8.05;2.78;;;3.70;97.80;;;;;;5013320;28;20022;-68
2021/01/19 05:57:03;;;;;;;9.40;3.25;;;3.60;98.00;;;;;;5012708;28;20026;-67
2021/01/19 05:59:38;;;;;;;11.32;3.88;;;3.50;98.20;;;;;;5012555;28;20480;-67
2021/01/19 06:02:13;;;;;;;8.45;3.42;;;3.50;98.20;;;;;;5012044;28;20029;-68
2021/01/19 06:04:47;;;;;;;8.45;3.25;;;3.40;98.60;;;;;;5011249;28;20091;-67
2021/01/19 06:07:14;;;;;;;9.85;3.22;;;3.30;99.00;;;;;;5012297;28;20029;-67
2021/01/19 06:09:41;;;;;;;7.53;2.65;;;3.50;97.90;;;;;;5012291;28;20018;-67
2021/01/19 06:12:07;;;;;;;7.90;2.97;;;3.60;97.50;;;;;;5011848;28;20442;-67
2021/01/19 06:14:34;;;;;;;14.65;7.15;;;3.90;96.60;;;;;;5017113;28;20084;-67
2021/01/19 06:17:20;;;;;;;28.45;11.65;;;3.80;97.10;;;;;;5032366;28;20388;-67
2021/01/19 06:19:47;;;;;;;8.55;2.58;;;3.70;97.20;;;;;;5032293;28;20387;-67
2021/01/19 06:22:17;;;;;;;18.02;15.13;;;3.70;97.00;;;;;;5031541;28;20112;-67
2021/01/19 06:24:44;;;;;;;;;;;3.80;97.10;;;;;;5032152;28;20036;-67
2021/01/19 06:27:25;;;;;;;9.60;6.18;;;3.80;96.60;;;;;;5031720;28;20383;-67
2021/01/19 06:29:57;;;;;;;7.72;3.15;;;3.70;97.10;;;;;;5031697;28;20021;-67
2021/01/19 06:32:23;;;;;;;12.65;7.50;;;3.70;96.50;;;;;;5030053;28;20112;-66
2021/01/19 06:34:49;;;;;;;10.63;4.40;;;3.60;97.20;;;;;;5031548;28;20045;-66
2021/01/19 06:37:27;;;;;;;8.55;4.00;;;3.40;98.30;;;;;;5031398;28;20056;-67
2021/01/19 06:40:03;;;;;;;10.38;3.47;;;3.20;98.60;;;;;;5031478;28;20139;-67
2021/01/19 06:42:32;;;;;;;10.15;3.70;;;3.20;99.10;;;;;;5029788;28;20514;-67
2021/01/19 06:45:05;;;;;;;11.00;2.90;;;3.10;98.60;;;;;;5031458;28;20034;-67
2021/01/19 06:47:46;;;;;;;10.05;3.08;;;3.40;97.40;;;;;;5031370;28;20033;-67
2021/01/19 06:50:12;;;;;;;7.28;3.03;;;3.50;97.10;;;;;;5031542;28;20029;-67
2021/01/19 06:52:41;;;;;;;7.75;2.65;;;3.30;97.80;;;;;;5014614;28;20042;-67
2021/01/19 06:55:22;;;;;;;7.85;2.45;;;3.30;97.30;;;;;;5029908;28;20540;-67
2021/01/19 06:58:16;;;;;;;6.95;2.70;;;3.40;97.90;;;;;;5030097;28;20519;-67
2021/01/19 07:00:43;;;;;;;8.32;3.38;;;3.30;99.50;;;;;;5003644;28;20164;-67
2021/01/19 07:03:36;;;;;;;8.40;3.22;;;3.20;99.90;;;;;;5030868;28;20033;-67
2021/01/19 07:06:04;;;;;;;9.90;2.70;;;3.30;98.50;;;;;;5028809;28;20111;-67
2021/01/19 07:09:07;;;;;;;9.23;3.00;;;3.20;98.20;;;;;;5025642;28;20017;-67
2021/01/19 07:11:48;;;;;;;7.82;3.25;;;3.10;98.50;;;;;;5010852;28;20025;-67
2021/01/19 07:14:15;;;;;;;9.73;2.55;;;3.10;98.60;;;;;;5009468;28;20600;-67
2021/01/19 07:16:56;;;;;;;9.30;2.70;;;3.30;97.00;;;;;;5011002;28;20044;-67
2021/01/19 07:19:40;;;;;;;8.43;3.40;;;3.70;95.80;;;;;;5015373;28;20018;-67
2021/01/19 07:22:08;;;;;;;9.15;2.50;;;3.70;96.00;;;;;;5011592;28;20021;-67
2021/01/19 07:24:54;;;;;;;6.95;2.90;;;3.50;96.60;;;;;;5029834;28;20032;-67
2021/01/19 07:27:24;;;;;;;8.20;1.90;;;3.50;96.50;;;;;;5030292;28;20502;-67
2021/01/19 07:29:50;;;;;;;;;;;3.70;95.60;;;;;;5028294;28;20022;-67
2021/01/19 07:32:20;;;;;;;19.83;8.00;;;3.70;96.00;;;;;;5021210;28;19912;-67
2021/01/19 07:34:48;;;;;;;11.40;3.25;;;3.70;95.30;;;;;;5009957;28;20437;-67
2021/01/19 07:37:13;;;;;;;7.35;2.58;;;3.70;95.90;;;;;;5010751;28;20044;-67
2021/01/19 07:39:39;;;;;;;10.95;3.15;;;3.50;96.40;;;;;;5011431;28;20033;-67
2021/01/19 07:42:13;;;;;;;10.15;3.33;;;3.50;97.10;;;;;;5010219;28;20496;-67
2021/01/19 07:44:42;;;;;;;7.68;2.33;;;3.60;96.30;;;;;;5010889;28;20053;-67
2021/01/19 07:47:12;;;;;;;13.55;4.13;;;3.70;95.60;;;;;;5010834;28;20469;-67
2021/01/19 07:49:37;;;;;;;13.90;4.82;;;3.80;96.00;;;;;;5010949;28;20124;-67
2021/01/19 07:52:11;;;;;;;12.27;4.28;;;3.80;95.10;;;;;;5010507;28;20528;-67
2021/01/19 07:54:36;;;;;;;14.27;5.35;;;3.90;94.20;;;;;;5010730;28;20037;-67
2021/01/19 07:57:13;;;;;;;13.38;4.57;;;3.70;95.20;;;;;;5014944;28;20352;-67
2021/01/19 07:59:39;;;;;;;8.20;3.50;;;3.80;94.80;;;;;;5017201;28;20109;-67
2021/01/19 08:02:05;;;;;;;8.88;2.65;;;3.90;94.10;;;;;;5021927;28;20026;-67
2021/01/19 08:04:37;;;;;;;26.92;9.07;;;3.90;94.30;;;;;;5028659;28;20104;-66
2021/01/19 08:07:10;;;;;;;6.90;2.22;;;3.90;94.40;;;;;;5033006;28;20025;-67
2021/01/19 08:09:36;;;;;;;9.35;3.60;;;3.90;94.20;;;;;;5034399;28;20025;-73
2021/01/19 08:12:06;;;;;;;11.18;4.50;;;4.00;94.20;;;;;;5034064;28;20018;-71
2021/01/19 08:14:51;;;;;;;15.00;2.78;;;3.90;94.20;;;;;;5033246;28;20526;-66
2021/01/19 08:17:17;;;;;;;10.55;3.13;;;3.90;94.60;;;;;;5034315;28;20392;-66
2021/01/19 08:19:44;;;;;;;10.20;3.50;;;3.90;94.30;;;;;;5034131;28;20108;-66
2021/01/19 08:22:11;;;;;;;12.82;5.80;;;3.90;94.40;;;;;;5033396;28;20029;-66
2021/01/19 08:24:40;;;;;;;11.15;4.50;;;3.90;94.20;;;;;;5034160;28;20500;-66
2021/01/19 08:27:05;;;;;;;12.25;3.00;;;4.10;93.70;;;;;;5032695;28;20044;-66
2021/01/19 08:29:31;;;;;;;9.60;2.60;;;4.10;93.40;;;;;;5033985;28;20404;-66
2021/01/19 08:32:01;;;;;;;8.60;2.50;;;4.10;93.50;;;;;;5033601;28;20503;-66
2021/01/19 08:34:28;;;;;;;6.35;2.15;;;4.10;93.20;;;;;;5033984;28;20013;-66
2021/01/19 08:36:56;;;;;;;7.22;2.38;;;3.90;93.60;;;;;;5024804;28;20022;-66
2021/01/19 08:39:22;;;;;;;4.55;1.77;;;4.10;93.30;;;;;;5018329;28;20029;-66
2021/01/19 08:41:50;;;;;;;10.05;2.88;;;4.10;94.50;;;;;;5019522;28;20037;-66
2021/01/19 08:44:16;;;;;;;7.75;2.80;;;4.10;93.10;;;;;;5032187;28;20112;-66
2021/01/19 08:46:44;;;;;;;8.35;2.92;;;4.10;93.40;;;;;;5032136;28;20104;-66
2021/01/19 08:49:12;;;;;;;8.80;3.45;;;4.20;93.00;;;;;;5033513;28;20068;-66
2021/01/19 08:51:45;;;;;;;7.60;2.50;;;4.30;92.80;;;;;;5033373;28;20022;-66
2021/01/19 08:54:11;;;;;;;8.13;2.00;;;4.40;92.60;;;;;;5033474;28;20476;-66
2021/01/19 08:56:46;;;;;;;7.82;2.42;;;4.30;93.20;;;;;;5033486;28;20021;-66
2021/01/19 08:59:16;;;;;;;7.72;3.28;;;4.40;92.40;;;;;;5033454;28;20279;-66
2021/01/19 09:01:52;;;;;;;;;;;4.30;93.30;;;;;;5031823;28;20365;-66
2021/01/19 09:04:24;;;;;;;6.22;2.83;;;4.30;93.30;;;;;;5033435;28;19909;-66
2021/01/19 09:07:03;;;;;;;17.08;8.95;;;4.30;93.70;;;;;;5033058;28;20018;-66
2021/01/19 09:09:29;;;;;;;10.90;4.00;;;4.30;93.00;;;;;;5032045;28;20026;-66
2021/01/19 09:11:54;;;;;;;9.20;3.55;;;4.20;93.20;;;;;;5032872;28;20088;-66
2021/01/19 09:14:24;;;;;;;8.43;2.50;;;4.20;93.50;;;;;;5033075;28;20029;-66
2021/01/19 09:16:51;;;;;;;8.45;2.55;;;4.40;92.70;;;;;;5033079;28;20514;-66
2021/01/19 09:19:16;;;;;;;7.50;3.05;;;4.30;93.30;;;;;;5033023;28;20029;-66
2021/01/19 09:21:42;;;;;;;6.78;1.70;;;4.40;93.00;;;;;;5032676;28;20090;-66
2021/01/19 09:24:18;;;;;;;7.57;3.13;;;4.40;92.50;;;;;;5032848;28;20435;-66
2021/01/19 09:26:56;;;;;;;8.00;2.35;;;4.30;92.50;;;;;;5032807;28;20095;-66
2021/01/19 09:29:29;;;;;;;8.32;2.60;;;4.40;92.40;;;;;;5024722;28;20020;-66
2021/01/19 09:32:04;;;;;;;6.13;2.13;;;4.30;92.70;;;;;;5012529;28;20483;-66
2021/01/19 09:34:31;;;;;;;6.00;2.20;;;4.30;92.80;;;;;;5013256;28;20461;-66
2021/01/19 09:36:57;;;;;;;10.73;4.00;;;4.30;92.90;;;;;;5012792;28;20056;-66
2021/01/19 09:39:26;;;;;;;10.23;5.95;;;4.30;92.80;;;;;;5027432;28;20104;-66
2021/01/19 09:41:53;;;;;;;8.50;2.53;;;4.30;92.90;;;;;;5032369;28;20031;-66
2021/01/19 09:44:19;;;;;;;12.68;2.50;;;4.30;93.10;;;;;;5032503;28;20026;-66
2021/01/19 09:46:52;;;;;;;9.82;5.07;;;4.50;92.60;;;;;;5032275;28;20386;-66
2021/01/19 09:49:19;;;;;;;11.15;4.82;;;4.50;92.90;;;;;;5032555;28;20464;-66
2021/01/19 09:51:44;;;;;;;3.35;1.45;;;4.40;93.00;;;;;;5013034;28;20071;-66
2021/01/19 09:54:10;;;;;;;11.23;3.55;;;4.40;92.70;;;;;;5010255;28;20431;-66
2021/01/19 09:56:35;;;;;;;5.22;2.20;;;4.30;93.70;;;;;;5022389;28;20026;-66
2021/01/19 09:59:05;;;;;;;8.77;2.83;;;4.30;93.40;;;;;;5012395;28;20509;-66
2021/01/19 10:01:31;;;;;;;4.45;1.98;;;4.30;93.40;;;;;;5022830;28;20037;-66
2021/01/19 10:03:57;;;;;;;3.95;1.20;;;4.30;93.10;;;;;;5031046;28;20048;-66
2021/01/19 10:06:25;;;;;;;8.57;1.58;;;4.30;93.40;;;;;;5031176;28;20036;-66
2021/01/19 10:08:54;;;;;;;10.07;3.00;;;4.30;93.30;;;;;;5032093;28;20064;-66
2021/01/19 10:11:34;;;;;;;6.63;2.47;;;4.30;93.60;;;;;;5032012;28;20049;-66
2021/01/19 10:14:13;;;;;;;9.25;4.15;;;4.50;92.60;;;;;;5031638;28;20108;-66
2021/01/19 10:16:49;;;;;;;5.32;1.30;;;4.40;92.80;;;;;;5032060;28;20017;-66
2021/01/19 10:19:25;;;;;;;6.65;2.50;;;4.30;93.60;;;;;;5031862;28;20036;-66
2021/01/19 10:22:10;;;;;;;3.65;1.30;;;4.30;93.30;;;;;;5031331;28;20312;-66
2021/01/19 10:24:45;;;;;;;2.35;0.88;;;4.40;93.50;;;;;;5032349;28;20029;-66
2021/01/19 10:27:17;;;;;;;5.55;1.42;;;4.30;93.40;;;;;;5031748;28;20076;-66
2021/01/19 10:29:43;;;;;;;7.72;3.45;;;4.20;94.70;;;;;;5031793;28;20091;-66
2021/01/19 10:32:16;;;;;;;5.05;2.33;;;4.20;94.80;;;;;;5031369;28;20468;-66
2021/01/19 10:34:47;;;;;;;3.40;1.00;;;4.20;95.70;;;;;;5022536;28;20030;-66
2021/01/19 10:37:12;;;;;;;4.70;1.50;;;4.20;94.90;;;;;;5012436;28;20033;-66
2021/01/19 10:39:47;;;;;;;8.05;1.80;;;4.20;95.70;;;;;;5011856;28;20116;-71
2021/01/19 10:42:26;;;;;;;5.63;1.63;;;4.10;96.40;;;;;;5011455;28;20026;-64
2021/01/19 10:44:55;;;;;;;3.67;1.27;;;4.10;96.70;;;;;;5012209;28;20112;-65
2021/01/19 10:47:21;;;;;;;4.80;1.63;;;4.10;96.00;;;;;;5011457;28;20292;-65
2021/01/19 10:49:47;;;;;;;2.45;1.05;;;4.10;96.20;;;;;;5011808;28;20025;-65
2021/01/19 10:52:12;;;;;;;4.10;1.45;;;4.00;96.60;;;;;;5011274;28;20041;-65
2021/01/19 10:54:38;;;;;;;8.27;1.75;;;4.10;96.00;;;;;;5011707;28;20033;-65
2021/01/19 10:57:05;;;;;;;11.25;4.82;;;4.10;96.40;;;;;;5011481;28;20472;-65
2021/01/19 10:59:32;;;;;;;10.75;4.57;;;4.10;96.20;;;;;;5010252;28;20534;-67
2021/01/19 11:01:58;;;;;;;5.15;2.33;;;4.20;95.40;;;;;;5011162;28;20088;-67
2021/01/19 11:04:24;;;;;;;10.45;7.20;;;4.20;95.30;;;;;;5011532;28;20053;-65
2021/01/19 11:06:49;;;;;;;1.95;0.75;;;4.10;96.20;;;;;;5011352;28;20117;-65
2021/01/19 11:09:15;;;;;;;4.35;1.48;;;4.20;95.70;;;;;;5011405;28;20103;-66
2021/01/19 11:11:40;;;;;;;2.90;1.00;;;4.10;95.80;;;;;;5011094;28;20029;-67
2021/01/19 11:14:07;;;;;;;9.82;2.25;;;4.00;96.40;;;;;;5011141;28;20097;-67
2021/01/19 11:16:40;;;;;;;6.65;2.10;;;3.90;98.80;;;;;;5011610;28;20029;-66
2021/01/19 11:19:11;;;;;;;4.88;2.38;;;4.00;97.60;;;;;;5011330;28;20076;-65
2021/01/19 11:21:38;;;;;;;30.17;12.98;;;3.90;99.90;;;;;;5011174;28;20033;-65
2021/01/19 11:24:05;;;;;;;6.30;3.28;;;3.90;99.70;;;;;;5010986;28;20025;-65
2021/01/19 11:26:35;;;;;;;6.88;3.55;;;4.00;98.40;;;;;;5011158;28;20080;-65
2021/01/19 11:29:01;;;;;;;8.10;4.47;;;4.00;99.60;;;;;;5010956;28;20542;-65
2021/01/19 11:31:28;;;;;;;3.97;1.95;;;4.00;99.00;;;;;;5011042;28;20034;-65
2021/01/19 11:33:54;;;;;;;5.60;2.35;;;4.10;97.90;;;;;;5010052;28;20018;-65
2021/01/19 11:36:24;;;;;;;2.53;1.10;;;4.00;99.80;;;;;;5011097;28;20030;-65
2021/01/19 11:38:53;;;;;;;3.67;1.20;;;4.00;97.90;;;;;;5010958;28;20033;-64
2021/01/19 11:41:20;;;;;;;3.80;1.70;;;4.00;98.60;;;;;;5011132;28;20022;-64
2021/01/19 11:43:46;;;;;;;2.58;1.17;;;3.80;98.80;;;;;;5010614;28;20022;-64
2021/01/19 11:46:17;;;;;;;3.55;1.50;;;3.90;98.60;;;;;;5010982;28;20030;-64
2021/01/19 11:48:43;;;;;;;3.28;1.38;;;3.70;99.90;;;;;;5010944;28;20096;-64
2021/01/19 11:51:08;;;;;;;5.35;2.15;;;3.80;99.10;;;;;;5010902;28;20520;-64
2021/01/19 11:53:34;;;;;;;4.20;1.58;;;3.80;99.40;;;;;;5010901;28;20037;-64
2021/01/19 11:56:02;;;;;;;3.55;1.40;;;3.80;99.30;;;;;;5010838;28;20354;-64
2021/01/19 11:58:28;;;;;;;3.30;1.20;;;3.90;98.50;;;;;;5010843;28;20562;-64
2021/01/19 12:00:53;;;;;;;5.68;1.67;;;3.80;99.70;;;;;;5010839;28;20029;-64
2021/01/19 12:03:19;;;;;;;28.17;21.02;;;3.90;98.90;;;;;;5009157;28;20030;-64
2021/01/19 12:05:45;;;;;;;5.93;0.82;;;4.00;98.90;;;;;;5010809;28;20105;-64
2021/01/19 12:08:12;;;;;;;3.17;1.30;;;4.00;97.80;;;;;;5010728;28;20599;-64
2021/01/19 12:10:37;;;;;;;4.00;2.67;;;3.90;98.30;;;;;;5010659;28;20053;-64
2021/01/19 12:13:07;;;;;;;2.10;0.60;;;3.80;99.20;;;;;;5010373;28;20105;-64
2021/01/19 12:15:33;;;;;;;1.65;0.77;;;4.00;97.70;;;;;;5010784;28;20113;-64
2021/01/19 12:17:59;;;;;;;4.55;2.05;;;4.00;97.90;;;;;;5010670;28;20105;-64
2021/01/19 12:20:25;;;;;;;2.30;1.10;;;3.80;99.90;;;;;;5010723;28;20018;-64
2021/01/19 12:22:50;;;;;;;4.53;2.00;;;3.70;98.80;;;;;;5010231;28;20030;-64
2021/01/19 12:25:16;;;;;;;3.28;1.45;;;3.60;99.80;;;;;;5010536;28;20109;-64
2021/01/19 12:27:41;;;;;;;6.13;2.72;;;3.60;99.90;;;;;;5010450;28;20073;-64
2021/01/19 12:30:07;;;;;;;1.40;0.80;;;3.50;99.90;;;;;;5010621;28;20030;-64
2021/01/19 12:32:33;;;;;;;15.40;6.63;;;3.50;99.90;;;;;;5010372;28;20030;-64
2021/01/19 12:34:58;;;;;;;9.65;4.43;;;3.40;99.90;;;;;;5010466;28;20077;-65
2021/01/19 12:37:24;;;;;;;6.15;1.77;;;3.40;99.90;;;;;;5010515;28;20504;-65
2021/01/19 12:39:49;;;;;;;1.40;0.80;;;3.30;99.90;;;;;;5010493;28;20037;-65
2021/01/19 12:42:15;;;;;;;2.75;1.27;;;3.30;99.90;;;;;;5010132;28;20030;-65
2021/01/19 12:44:41;;;;;;;2.83;0.80;;;3.30;99.90;;;;;;5012366;28;20026;-65
2021/01/19 12:47:07;;;;;;;7.85;3.25;;;3.30;99.90;;;;;;5012557;28;20092;-65
2021/01/19 12:49:32;;;;;;;19.85;7.65;;;3.30;99.90;;;;;;5013975;28;20053;-65
2021/01/19 12:51:58;;;;;;;15.88;6.40;;;3.30;99.90;;;;;;5013413;28;20049;-65
2021/01/19 12:54:23;;;;;;;10.80;5.13;;;3.20;99.90;;;;;;5013790;28;20473;-65
2021/01/19 12:56:49;;;;;;;3.22;1.13;;;3.30;99.90;;;;;;5013692;28;20485;-65
2021/01/19 12:59:15;;;;;;;2.28;0.98;;;3.30;99.90;;;;;;5013739;28;20159;-65
2021/01/19 13:01:40;;;;;;;3.20;1.10;;;3.30;99.90;;;;;;5012241;28;20062;-65
2021/01/19 13:04:06;;;;;;;4.53;1.20;;;3.20;99.90;;;;;;5013571;28;20026;-65
2021/01/19 13:06:31;;;;;;;1.90;0.70;;;3.10;99.90;;;;;;5013702;28;20022;-65